createdAt,value
2019-02-11T00:00:35.715Z,97056.66
2019-02-11T00:01:43.501Z,97061.22
2019-02-11T00:02:51.435Z,97055.94
2019-02-11T00:03:59.981Z,97058.58
2019-02-11T00:05:08.149Z,97053.44
2019-02-11T00:06:16.175Z,97048.51
2019-02-11T00:07:23.868Z,97045.23
2019-02-11T00:08:31.694Z,97051.37
2019-02-11T00:09:40.077Z,97051.64
2019-02-11T00:10:47.684Z,97048.02
2019-02-11T00:11:55.543Z,97047.19
2019-02-11T00:13:10.478Z,97041.86
2019-02-11T00:14:13.606Z,97044.84
2019-02-11T00:15:21.495Z,97040.73
2019-02-11T00:16:29.309Z,97041.42
2019-02-11T00:17:38.075Z,97047.53
2019-02-11T00:18:46.297Z,97038.78
2019-02-11T00:19:54.407Z,97042.48
2019-02-11T00:21:01.558Z,97041.50
2019-02-11T00:22:08.318Z,97034.08
2019-02-11T00:23:16.186Z,97037.06
2019-02-11T00:24:23.978Z,97030.80
2019-02-11T00:25:30.972Z,97029.56
2019-02-11T00:26:37.150Z,97021.35
2019-02-11T00:28:21.560Z,97021.55
2019-02-11T00:29:31.145Z,97025.84
2019-02-11T00:30:39.013Z,97024.41
2019-02-11T00:31:47.111Z,97029.20
2019-02-11T00:32:55.570Z,97034.19
2019-02-11T00:34:03.331Z,97031.77
2019-02-11T00:35:11.103Z,97030.98
2019-02-11T00:36:19.289Z,97023.64
2019-02-11T00:37:26.947Z,97033.22
2019-02-11T00:38:34.554Z,97022.02
2019-02-11T00:39:42.770Z,97024.36
2019-02-11T00:40:50.648Z,97020.41
2019-02-11T00:41:58.340Z,97020.41
2019-02-11T00:43:06.010Z,97018.13
2019-02-11T00:44:13.914Z,97022.92
2019-02-11T00:45:21.805Z,97023.12
2019-02-11T00:46:29.668Z,97023.80
2019-02-11T00:47:37.461Z,97021.98
2019-02-11T00:48:45.461Z,97024.37
2019-02-11T00:49:53.243Z,97014.97
2019-02-11T00:51:01.305Z,97019.69
2019-02-11T00:52:09.231Z,97020.71
2019-02-11T00:53:16.899Z,97023.08
2019-02-11T00:54:24.615Z,97022.59
2019-02-11T00:55:32.479Z,97021.54
2019-02-11T00:56:40.282Z,97029.61
2019-02-11T00:57:48.211Z,97029.13
2019-02-11T00:58:55.982Z,97032.41
2019-02-11T01:00:03.621Z,97035.38
2019-02-11T01:01:11.555Z,97037.53
2019-02-11T01:02:19.804Z,97039.20
2019-02-11T01:03:27.431Z,97046.97
2019-02-11T01:04:35.108Z,97044.82
2019-02-11T01:05:42.973Z,97041.50
2019-02-11T01:06:50.532Z,97046.30
2019-02-11T01:07:58.435Z,97044.06
2019-02-11T01:09:06.913Z,97044.22
2019-02-11T01:10:14.732Z,97048.13
2019-02-11T01:11:23.297Z,97063.07
2019-02-11T01:12:30.827Z,97054.13
2019-02-11T01:13:38.818Z,97058.84
2019-02-11T01:14:46.844Z,97066.83
2019-02-11T01:15:54.651Z,97068.09
2019-02-11T01:17:02.588Z,97069.34
2019-02-11T01:18:10.686Z,97075.40
2019-02-11T01:19:18.388Z,97066.37
2019-02-11T01:20:26.028Z,97068.09
2019-02-11T01:21:34.095Z,97068.53
2019-02-11T01:22:43.281Z,97074.20
2019-02-11T01:23:51.387Z,97073.30
2019-02-11T01:24:59.172Z,97070.71
2019-02-11T01:27:11.060Z,97068.51
2019-02-11T01:28:19.771Z,97065.58
2019-02-11T01:29:27.463Z,97078.83
2019-02-11T01:30:35.370Z,97070.08
2019-02-11T01:31:43.146Z,97067.38
2019-02-11T01:32:50.984Z,97071.59
2019-02-11T01:33:58.538Z,97071.53
2019-02-11T01:35:08.301Z,97070.67
2019-02-11T01:36:16.107Z,97069.50
2019-02-11T01:37:23.937Z,97071.09
2019-02-11T01:38:31.698Z,97072.67
2019-02-11T01:39:39.544Z,97073.78
2019-02-11T01:40:47.713Z,97066.64
2019-02-11T01:41:55.599Z,97068.22
2019-02-11T01:43:03.403Z,97071.63
2019-02-11T01:44:11.257Z,97067.42
2019-02-11T01:45:19.279Z,97063.90
2019-02-11T01:46:27.174Z,97065.42
2019-02-11T01:47:35.026Z,97067.56
2019-02-11T01:48:42.751Z,97061.95
2019-02-11T01:49:50.541Z,97064.38
2019-02-11T01:50:58.332Z,97066.53
2019-02-11T01:52:06.016Z,97064.73
2019-02-11T01:53:13.907Z,97066.39
2019-02-11T01:54:21.784Z,97058.73
2019-02-11T01:55:29.622Z,97062.14
2019-02-11T01:56:38.314Z,97058.67
2019-02-11T01:57:45.847Z,97057.01
2019-02-11T01:58:53.738Z,97060.23
2019-02-11T02:00:01.512Z,97052.95
2019-02-11T02:01:09.479Z,97056.56
2019-02-11T02:02:17.369Z,97031.81
2019-02-11T02:03:25.422Z,97047.28
2019-02-11T02:04:33.303Z,97045.72
2019-02-11T02:05:40.942Z,97029.70
2019-02-11T02:06:48.913Z,97035.60
2019-02-11T02:07:56.697Z,97030.92
2019-02-11T02:09:05.190Z,97032.52
2019-02-11T02:10:15.136Z,97025.01
2019-02-11T02:11:23.090Z,97023.48
2019-02-11T02:12:30.681Z,97026.95
2019-02-11T02:13:44.607Z,97029.23
2019-02-11T02:14:48.569Z,97039.53
2019-02-11T02:15:56.483Z,97026.99
2019-02-11T02:17:04.112Z,97030.25
2019-02-11T02:18:12.417Z,97040.92
2019-02-11T02:19:19.903Z,97031.47
2019-02-11T02:20:28.115Z,97033.41
2019-02-11T02:21:36.102Z,97024.47
2019-02-11T02:22:44.064Z,97026.62
2019-02-11T02:23:52.138Z,97021.34
2019-02-11T02:25:00.314Z,97026.62
2019-02-11T02:26:07.807Z,97024.09
2019-02-11T02:27:15.454Z,97011.55
2019-02-11T02:28:23.524Z,97015.14
2019-02-11T02:29:31.223Z,97015.63
2019-02-11T02:30:39.057Z,96996.50
2019-02-11T02:31:46.891Z,97011.96
2019-02-11T02:32:54.835Z,97009.78
2019-02-11T02:34:02.530Z,97001.19
2019-02-11T02:35:10.318Z,97004.44
2019-02-11T02:36:18.088Z,97007.32
2019-02-11T02:37:32.856Z,97009.61
2019-02-11T02:38:40.908Z,97008.78
2019-02-11T02:39:48.619Z,97008.22
2019-02-11T02:40:56.379Z,97013.00
2019-02-11T02:42:03.898Z,97006.91
2019-02-11T02:43:11.688Z,97014.80
2019-02-11T02:44:19.754Z,97010.02
2019-02-11T02:45:29.132Z,97010.98
2019-02-11T02:46:36.985Z,97009.54
2019-02-11T02:47:44.721Z,97015.39
2019-02-11T02:48:52.610Z,97013.24
2019-02-11T02:50:00.688Z,97020.31
2019-02-11T02:51:08.800Z,97019.97
2019-02-11T02:52:16.789Z,97013.38
2019-02-11T02:53:24.598Z,97015.05
2019-02-11T02:54:32.287Z,97017.44
2019-02-11T02:55:40.602Z,97016.88
2019-02-11T02:56:48.451Z,97017.95
2019-02-11T02:57:56.460Z,97024.67
2019-02-11T02:59:04.242Z,97025.16
2019-02-11T03:00:13.776Z,97028.27
2019-02-11T03:01:21.156Z,97031.39
2019-02-11T03:02:28.742Z,97031.62
2019-02-11T03:03:36.548Z,97033.08
2019-02-11T03:04:44.437Z,97036.06
2019-02-11T03:05:53.089Z,97036.06
2019-02-11T03:07:00.941Z,97042.16
2019-02-11T03:08:09.164Z,97039.17
2019-02-11T03:09:16.617Z,97039.52
2019-02-11T03:10:24.252Z,97036.06
2019-02-11T03:11:32.475Z,97044.92
2019-02-11T03:12:40.421Z,97046.11
2019-02-11T03:13:48.821Z,97046.52
2019-02-11T03:14:57.250Z,97048.80
2019-02-11T03:16:05.445Z,97059.43
2019-02-11T03:17:13.492Z,97062.55
2019-02-11T03:18:21.269Z,97059.56
2019-02-11T03:19:28.863Z,97063.52
2019-02-11T03:20:36.838Z,97065.17
2019-02-11T03:21:44.297Z,97068.16
2019-02-11T03:22:52.465Z,97062.79
2019-02-11T03:24:00.517Z,97061.34
2019-02-11T03:25:09.274Z,97062.03
2019-02-11T03:26:17.039Z,97059.41
2019-02-11T03:27:24.827Z,97061.55
2019-02-11T03:28:32.521Z,97056.77
2019-02-11T03:29:40.608Z,97065.64
2019-02-11T03:30:48.413Z,97066.81
2019-02-11T03:31:59.752Z,97065.02
2019-02-11T03:33:05.860Z,97062.25
2019-02-11T03:34:13.726Z,97062.14
2019-02-11T03:35:21.599Z,97064.64
2019-02-11T03:36:29.409Z,97055.56
2019-02-11T03:37:37.713Z,97062.14
2019-02-11T03:38:45.449Z,97068.73
2019-02-11T03:39:53.399Z,97066.44
2019-02-11T03:41:01.186Z,97076.35
2019-02-11T03:42:09.094Z,97075.17
2019-02-11T03:43:16.686Z,97073.72
2019-02-11T03:44:24.749Z,97075.87
2019-02-11T03:45:32.414Z,97074.83
2019-02-11T03:46:40.398Z,97075.06
2019-02-11T03:47:47.868Z,97075.68
2019-02-11T03:48:55.563Z,97077.13
2019-02-11T03:50:04.042Z,97075.47
2019-02-11T03:51:14.510Z,97066.84
2019-02-11T03:52:22.218Z,97065.80
2019-02-11T03:53:29.974Z,97063.52
2019-02-11T03:54:37.847Z,97058.25
2019-02-11T03:55:46.091Z,97061.84
2019-02-11T03:56:53.627Z,97056.85
2019-02-11T03:58:02.018Z,97055.64
2019-02-11T03:59:09.491Z,97059.72
2019-02-11T04:00:17.497Z,97054.38
2019-02-11T04:01:25.537Z,97059.64
2019-02-11T04:02:33.289Z,97063.34
2019-02-11T04:03:41.039Z,97057.25
2019-02-11T04:04:48.729Z,97061.20
2019-02-11T04:05:56.376Z,97067.64
2019-02-11T04:07:04.646Z,97063.70
2019-02-11T04:08:12.366Z,97063.21
2019-02-11T04:09:19.768Z,97061.79
2019-02-11T04:10:27.442Z,97068.47
2019-02-11T04:11:35.587Z,97068.86
2019-02-11T04:12:43.293Z,97067.53
2019-02-11T04:13:50.867Z,97065.13
2019-02-11T04:14:58.903Z,97060.83
2019-02-11T04:16:06.768Z,97066.57
2019-02-11T04:17:14.537Z,97062.48
2019-02-11T04:18:22.123Z,97070.38
2019-02-11T04:19:30.027Z,97065.34
2019-02-11T04:20:37.653Z,97061.39
2019-02-11T04:21:45.351Z,97062.57
2019-02-11T04:22:53.088Z,97060.42
2019-02-11T04:24:00.805Z,97063.19
2019-02-11T04:25:08.990Z,97059.72
2019-02-11T04:26:16.734Z,97061.73
2019-02-11T04:27:24.854Z,97059.37
2019-02-11T04:28:32.572Z,97055.64
2019-02-11T04:29:40.378Z,97056.74
2019-02-11T04:30:48.113Z,97057.71
2019-02-11T04:31:55.948Z,97060.55
2019-02-11T04:33:04.083Z,97051.69
2019-02-11T04:34:12.107Z,97058.75
2019-02-11T04:35:20.135Z,97058.27
2019-02-11T04:36:28.283Z,97053.02
2019-02-11T04:37:36.527Z,97056.47
2019-02-11T04:38:44.633Z,97046.91
2019-02-11T04:39:52.500Z,97051.20
2019-02-11T04:41:00.113Z,97043.94
2019-02-11T04:42:08.232Z,97039.98
2019-02-11T04:43:16.261Z,97047.67
2019-02-11T04:44:23.884Z,97052.58
2019-02-11T04:45:31.851Z,97058.67
2019-02-11T04:46:39.933Z,97057.36
2019-02-11T04:47:47.605Z,97057.36
2019-02-11T04:48:55.925Z,97062.14
2019-02-11T04:50:05.464Z,97056.53
2019-02-11T04:51:13.013Z,97046.83
2019-02-11T04:52:21.337Z,97044.55
2019-02-11T04:53:29.240Z,97050.44
2019-02-11T04:54:37.305Z,97050.44
2019-02-11T04:55:45.345Z,97050.67
2019-02-11T04:56:53.210Z,97054.00
2019-02-11T04:58:01.461Z,97052.58
2019-02-11T04:59:09.266Z,97050.44
2019-02-11T05:00:17.569Z,97049.47
2019-02-11T05:01:25.380Z,97053.98
2019-02-11T05:02:32.983Z,97049.81
2019-02-11T05:03:40.849Z,97055.42
2019-02-11T05:04:48.743Z,97053.77
2019-02-11T05:05:56.589Z,97056.05
2019-02-11T05:07:04.703Z,97053.41
2019-02-11T05:08:12.481Z,97059.02
2019-02-11T05:09:20.552Z,97055.08
2019-02-11T05:10:28.201Z,97057.23
2019-02-11T05:11:36.211Z,97051.61
2019-02-11T05:12:44.123Z,97056.39
2019-02-11T05:13:51.982Z,97060.20
2019-02-11T05:14:59.557Z,97060.69
2019-02-11T05:16:07.435Z,97063.45
2019-02-11T05:17:15.464Z,97061.79
2019-02-11T05:18:23.106Z,97057.46
2019-02-11T05:19:31.249Z,97052.69
2019-02-11T05:20:39.193Z,97049.70
2019-02-11T05:21:46.997Z,97048.52
2019-02-11T05:22:54.826Z,97049.35
2019-02-11T05:24:02.586Z,97052.12
2019-02-11T05:25:10.697Z,97052.60
2019-02-11T05:26:18.844Z,97050.20
2019-02-11T05:27:26.540Z,97061.11
2019-02-11T05:28:34.617Z,97062.05
2019-02-11T05:29:42.203Z,97064.81
2019-02-11T05:30:49.888Z,97073.05
2019-02-11T05:31:57.518Z,97068.06
2019-02-11T05:33:05.790Z,97074.16
2019-02-11T05:34:14.289Z,97074.77
2019-02-11T05:35:22.031Z,97074.29
2019-02-11T05:36:29.756Z,97071.66
2019-02-11T05:37:37.979Z,97062.58
2019-02-11T05:38:46.095Z,97063.41
2019-02-11T05:39:54.362Z,97056.48
2019-02-11T05:41:02.871Z,97054.44
2019-02-11T05:42:10.813Z,97055.89
2019-02-11T05:43:18.845Z,97053.61
2019-02-11T05:44:26.607Z,97054.92
2019-02-11T05:45:34.512Z,97050.63
2019-02-11T05:46:42.526Z,97051.46
2019-02-11T05:47:50.226Z,97047.16
2019-02-11T05:48:58.335Z,97053.39
2019-02-11T05:50:10.451Z,97059.00
2019-02-11T05:51:18.264Z,97066.41
2019-02-11T05:52:25.860Z,97069.17
2019-02-11T05:53:34.060Z,97070.02
2019-02-11T05:54:42.045Z,97073.47
2019-02-11T05:55:49.841Z,97073.95
2019-02-11T05:56:57.649Z,97079.34
2019-02-11T05:58:05.869Z,97073.95
2019-02-11T05:59:13.779Z,97080.05
2019-02-11T06:00:21.883Z,97079.22
2019-02-11T06:01:30.050Z,97078.12
2019-02-11T06:02:38.130Z,97081.58
2019-02-11T06:03:46.067Z,97090.20
2019-02-11T06:04:53.928Z,97081.00
2019-02-11T06:06:01.704Z,97087.58
2019-02-11T06:07:10.053Z,97086.36
2019-02-11T06:08:18.367Z,97086.34
2019-02-11T06:09:26.063Z,97080.95
2019-02-11T06:10:33.957Z,97089.92
2019-02-11T06:11:41.990Z,97086.46
2019-02-11T06:12:50.381Z,97093.73
2019-02-11T06:13:58.078Z,97090.97
2019-02-11T06:15:08.510Z,97092.77
2019-02-11T06:16:16.769Z,97101.50
2019-02-11T06:17:24.811Z,97098.86
2019-02-11T06:18:32.712Z,97099.11
2019-02-11T06:19:40.519Z,97087.27
2019-02-11T06:20:48.747Z,97094.91
2019-02-11T06:21:56.848Z,97093.94
2019-02-11T06:23:05.218Z,97095.87
2019-02-11T06:24:12.976Z,97101.48
2019-02-11T06:25:20.828Z,97105.55
2019-02-11T06:26:29.062Z,97106.94
2019-02-11T06:27:36.999Z,97107.05
2019-02-11T06:28:45.595Z,97104.84
2019-02-11T06:29:53.454Z,97109.74
2019-02-11T06:31:01.324Z,97106.63
2019-02-11T06:32:09.563Z,97110.09
2019-02-11T06:33:19.808Z,97120.63
2019-02-11T06:34:27.799Z,97113.91
2019-02-11T06:35:36.076Z,97121.32
2019-02-11T06:36:44.391Z,97118.23
2019-02-11T06:37:52.294Z,97123.02
2019-02-11T06:39:00.813Z,97123.23
2019-02-11T06:40:11.385Z,97128.88
2019-02-11T06:41:19.522Z,97127.31
2019-02-11T06:42:28.313Z,97132.58
2019-02-11T06:43:36.429Z,97131.12
2019-02-11T06:44:44.551Z,97131.12
2019-02-11T06:45:53.023Z,97132.93
2019-02-11T06:47:01.523Z,97124.20
2019-02-11T06:48:09.955Z,97129.23
2019-02-11T06:49:18.223Z,97131.38
2019-02-11T06:50:25.959Z,97138.20
2019-02-11T06:51:34.836Z,97133.28
2019-02-11T06:52:43.074Z,97130.89
2019-02-11T06:53:51.343Z,97134.84
2019-02-11T06:54:59.382Z,97125.28
2019-02-11T06:56:07.734Z,97127.91
2019-02-11T06:57:16.142Z,97125.86
2019-02-11T06:58:24.450Z,97126.83
2019-02-11T06:59:32.824Z,97128.98
2019-02-11T07:00:40.685Z,97136.05
2019-02-11T07:01:49.029Z,97132.45
2019-02-11T07:02:57.849Z,97138.44
2019-02-11T07:04:06.093Z,97133.28
2019-02-11T07:05:14.661Z,97135.46
2019-02-11T07:06:22.598Z,97142.39
2019-02-11T07:07:31.459Z,97142.74
2019-02-11T07:08:39.623Z,97146.45
2019-02-11T07:09:48.316Z,97140.84
2019-02-11T07:10:56.839Z,97137.83
2019-02-11T07:12:04.879Z,97135.92
2019-02-11T07:13:13.321Z,97138.69
2019-02-11T07:14:22.248Z,97142.39
2019-02-11T07:15:30.324Z,97136.51
2019-02-11T07:16:38.545Z,97139.77
2019-02-11T07:17:47.051Z,97152.20
2019-02-11T07:18:55.173Z,97147.89
2019-02-11T07:20:04.003Z,97149.21
2019-02-11T07:21:12.243Z,97150.53
2019-02-11T07:22:20.553Z,97154.83
2019-02-11T07:23:29.010Z,97163.94
2019-02-11T07:24:36.995Z,97169.07
2019-02-11T07:25:45.411Z,97165.61
2019-02-11T07:26:53.547Z,97167.76
2019-02-11T07:28:02.373Z,97179.95
2019-02-11T07:29:10.619Z,97163.56
2019-02-11T07:30:19.265Z,97183.55
2019-02-11T07:31:27.346Z,97175.66
2019-02-11T07:32:35.882Z,97180.92
2019-02-11T07:33:44.025Z,97191.45
2019-02-11T07:34:52.662Z,97189.30
2019-02-11T07:36:00.683Z,97181.16
2019-02-11T07:37:08.985Z,97190.38
2019-02-11T07:38:17.610Z,97193.00
2019-02-11T07:39:25.413Z,97188.57
2019-02-11T07:40:33.540Z,97191.94
2019-02-11T07:41:43.108Z,97194.09
2019-02-11T07:42:56.180Z,97189.89
2019-02-11T07:44:06.036Z,97199.23
2019-02-11T07:45:18.731Z,97202.35
2019-02-11T07:46:28.666Z,97198.75
2019-02-11T07:47:36.916Z,97208.56
2019-02-11T07:48:45.079Z,97208.47
2019-02-11T07:49:53.106Z,97219.34
2019-02-11T07:51:01.862Z,97216.36
2019-02-11T07:52:09.857Z,97221.50
2019-02-11T07:53:18.162Z,97215.88
2019-02-11T07:54:26.742Z,97217.55
2019-02-11T07:55:35.197Z,97218.37
2019-02-11T07:56:43.995Z,97217.16
2019-02-11T07:57:52.556Z,97210.56
2019-02-11T07:59:00.652Z,97213.33
2019-02-11T08:00:10.862Z,97211.88
2019-02-11T08:01:21.032Z,97219.90
2019-02-11T08:02:29.101Z,97213.78
2019-02-11T08:03:37.966Z,97217.46
2019-02-11T08:04:46.146Z,97222.02
2019-02-11T08:05:54.382Z,97210.51
2019-02-11T08:07:03.053Z,97210.02
2019-02-11T08:08:11.163Z,97203.09
2019-02-11T08:09:19.654Z,97213.97
2019-02-11T08:10:27.945Z,97196.72
2019-02-11T08:11:36.109Z,97207.47
2019-02-11T08:12:44.260Z,97206.40
2019-02-11T08:13:52.167Z,97210.11
2019-02-11T08:15:00.205Z,97205.67
2019-02-11T08:16:08.244Z,97200.52
2019-02-11T08:17:16.490Z,97206.00
2019-02-11T08:18:24.496Z,97205.03
2019-02-11T08:19:32.604Z,97206.73
2019-02-11T08:20:40.744Z,97210.89
2019-02-11T08:21:48.483Z,97206.31
2019-02-11T08:22:56.375Z,97204.28
2019-02-11T08:24:04.698Z,97204.84
2019-02-11T08:25:14.087Z,97210.84
2019-02-11T08:26:22.083Z,97199.09
2019-02-11T08:27:30.297Z,97206.96
2019-02-11T08:28:38.819Z,97208.49
2019-02-11T08:29:46.682Z,97202.39
2019-02-11T08:30:55.187Z,97197.11
2019-02-11T08:32:02.872Z,97205.02
2019-02-11T08:33:10.680Z,97205.41
2019-02-11T08:34:18.858Z,97203.11
2019-02-11T08:35:28.934Z,97193.41
2019-02-11T08:36:37.093Z,97205.27
2019-02-11T08:37:45.510Z,97197.92
2019-02-11T08:38:53.504Z,97204.75
2019-02-11T08:40:01.976Z,97203.78
2019-02-11T08:41:09.774Z,97210.93
2019-02-11T08:42:17.744Z,97202.64
2019-02-11T08:43:26.290Z,97202.23
2019-02-11T08:44:34.263Z,97208.58
2019-02-11T08:45:47.007Z,97206.59
2019-02-11T08:46:51.565Z,97211.11
2019-02-11T08:47:59.922Z,97207.39
2019-02-11T08:49:07.932Z,97203.44
2019-02-11T08:50:16.746Z,97203.78
2019-02-11T08:51:26.179Z,97211.91
2019-02-11T08:52:34.276Z,97217.66
2019-02-11T08:53:42.599Z,97223.18
2019-02-11T08:54:50.713Z,97222.90
2019-02-11T08:55:58.761Z,97227.79
2019-02-11T08:57:07.353Z,97221.50
2019-02-11T08:58:15.368Z,97218.05
2019-02-11T08:59:23.770Z,97222.52
2019-02-11T09:00:32.478Z,97227.89
2019-02-11T09:01:40.457Z,97228.79
2019-02-11T09:02:49.064Z,97238.12
2019-02-11T09:03:57.721Z,97232.36
2019-02-11T09:05:07.665Z,97224.64
2019-02-11T09:06:15.965Z,97223.23
2019-02-11T09:07:23.905Z,97241.86
2019-02-11T09:08:34.302Z,97240.48
2019-02-11T09:09:42.775Z,97241.95
2019-02-11T09:10:50.762Z,97236.43
2019-02-11T09:11:58.456Z,97241.80
2019-02-11T09:13:06.693Z,97240.72
2019-02-11T09:14:14.846Z,97251.23
2019-02-11T09:15:22.843Z,97253.38
2019-02-11T09:16:30.845Z,97256.34
2019-02-11T09:17:38.753Z,97259.29
2019-02-11T09:18:46.927Z,97245.31
2019-02-11T09:19:54.666Z,97251.94
2019-02-11T09:21:03.013Z,97248.27
2019-02-11T09:22:10.763Z,97239.67
2019-02-11T09:23:18.703Z,97247.27
2019-02-11T09:24:26.432Z,97248.73
2019-02-11T09:25:34.788Z,97242.58
2019-02-11T09:26:42.664Z,97249.67
2019-02-11T09:27:50.273Z,97250.08
2019-02-11T09:29:03.161Z,97249.11
2019-02-11T09:30:15.447Z,97249.53
2019-02-11T09:31:23.393Z,97253.34
2019-02-11T09:32:30.992Z,97250.27
2019-02-11T09:33:39.043Z,97261.06
2019-02-11T09:34:47.050Z,97257.13
2019-02-11T09:35:55.057Z,97260.13
2019-02-11T09:37:02.870Z,97274.24
2019-02-11T09:38:11.009Z,97277.50
2019-02-11T09:39:19.178Z,97262.05
2019-02-11T09:40:27.252Z,97265.00
2019-02-11T09:41:35.682Z,97275.83
2019-02-11T09:42:43.574Z,97277.59
2019-02-11T09:43:51.755Z,97264.78
2019-02-11T09:44:59.727Z,97287.41
2019-02-11T09:46:07.923Z,97274.80
2019-02-11T09:47:15.932Z,97292.19
2019-02-11T09:48:24.209Z,97272.14
2019-02-11T09:49:32.308Z,97292.52
2019-02-11T09:50:46.881Z,97276.34
2019-02-11T09:51:54.674Z,97299.58
2019-02-11T09:53:03.068Z,97276.47
2019-02-11T09:54:10.859Z,97276.20
2019-02-11T09:55:23.102Z,97263.61
2019-02-11T09:56:30.822Z,97278.07
2019-02-11T09:57:38.642Z,97276.77
2019-02-11T09:58:46.468Z,97288.61
2019-02-11T09:59:54.244Z,97278.14
2019-02-11T10:01:02.106Z,97298.75
2019-02-11T10:02:10.300Z,97290.48
2019-02-11T10:03:18.244Z,97285.23
2019-02-11T10:04:26.575Z,97287.86
2019-02-11T10:05:34.641Z,97275.78
2019-02-11T10:06:42.899Z,97295.91
2019-02-11T10:07:50.893Z,97285.39
2019-02-11T10:08:58.682Z,97290.25
2019-02-11T10:10:09.390Z,97311.27
2019-02-11T10:11:17.181Z,97285.95
2019-02-11T10:12:25.210Z,97298.87
2019-02-11T10:13:33.273Z,97316.95
2019-02-11T10:14:40.882Z,97308.20
2019-02-11T10:15:48.804Z,97302.30
2019-02-11T10:16:56.671Z,97300.98
2019-02-11T10:18:04.397Z,97303.17
2019-02-11T10:19:14.119Z,97296.61
2019-02-11T10:20:21.822Z,97302.31
2019-02-11T10:21:30.152Z,97310.78
2019-02-11T10:22:37.970Z,97317.86
2019-02-11T10:23:46.344Z,97304.67
2019-02-11T10:24:54.267Z,97332.72
2019-02-11T10:26:02.331Z,97314.77
2019-02-11T10:27:10.152Z,97298.66
2019-02-11T10:28:17.835Z,97317.79
2019-02-11T10:29:25.780Z,97317.47
2019-02-11T10:30:34.155Z,97336.59
2019-02-11T10:31:41.823Z,97326.90
2019-02-11T10:32:49.880Z,97333.14
2019-02-11T10:33:57.882Z,97342.75
2019-02-11T10:35:07.669Z,97340.97
2019-02-11T10:36:15.756Z,97349.63
2019-02-11T10:37:23.718Z,97338.73
2019-02-11T10:38:36.551Z,97327.94
2019-02-11T10:39:41.329Z,97331.81
2019-02-11T10:40:49.452Z,97336.73
2019-02-11T10:41:57.423Z,97331.95
2019-02-11T10:43:05.245Z,97328.48
2019-02-11T10:44:12.831Z,97335.17
2019-02-11T10:45:20.603Z,97328.00
2019-02-11T10:46:28.645Z,97328.48
2019-02-11T10:47:36.477Z,97329.31
2019-02-11T10:48:44.317Z,97351.83
2019-02-11T10:49:52.669Z,97334.13
2019-02-11T10:51:00.499Z,97337.38
2019-02-11T10:52:08.302Z,97350.17
2019-02-11T10:53:15.887Z,97344.80
2019-02-11T10:54:23.655Z,97337.11
2019-02-11T10:55:31.411Z,97338.89
2019-02-11T10:56:39.135Z,97337.28
2019-02-11T10:57:47.132Z,97352.81
2019-02-11T10:58:55.094Z,97334.99
2019-02-11T11:00:02.809Z,97334.17
2019-02-11T11:01:15.168Z,97351.78
2019-02-11T11:02:22.895Z,97352.34
2019-02-11T11:03:31.155Z,97349.22
2019-02-11T11:04:39.155Z,97352.30
2019-02-11T11:05:47.090Z,97352.97
2019-02-11T11:06:55.088Z,97356.68
2019-02-11T11:08:03.340Z,97355.05
2019-02-11T11:09:13.794Z,97351.80
2019-02-11T11:10:30.956Z,97343.43
2019-02-11T11:11:38.900Z,97351.70
2019-02-11T11:12:46.826Z,97358.89
2019-02-11T11:13:55.235Z,97353.69
2019-02-11T11:15:03.989Z,97360.93
2019-02-11T11:16:12.079Z,97366.70
2019-02-11T11:17:20.155Z,97375.84
2019-02-11T11:18:28.321Z,97362.58
2019-02-11T11:19:36.456Z,97366.89
2019-02-11T11:20:44.596Z,97380.17
2019-02-11T11:21:52.400Z,97368.75
2019-02-11T11:23:00.310Z,97392.80
2019-02-11T11:24:08.161Z,97396.38
2019-02-11T11:25:18.113Z,97400.19
2019-02-11T11:26:25.861Z,97393.75
2019-02-11T11:27:33.742Z,97405.86
2019-02-11T11:28:41.675Z,97403.66
2019-02-11T11:29:49.154Z,97397.86
2019-02-11T11:30:56.881Z,97403.64
2019-02-11T11:32:04.884Z,97411.42
2019-02-11T11:33:12.669Z,97413.49
2019-02-11T11:34:20.183Z,97405.59
2019-02-11T11:35:28.259Z,97415.77
2019-02-11T11:36:36.225Z,97410.03
2019-02-11T11:37:44.215Z,97421.19
2019-02-11T11:38:51.825Z,97421.80
2019-02-11T11:39:59.471Z,97421.90
2019-02-11T11:41:07.889Z,97429.70
2019-02-11T11:42:15.888Z,97420.70
2019-02-11T11:43:23.894Z,97419.25
2019-02-11T11:44:31.584Z,97429.45
2019-02-11T11:45:39.304Z,97426.20
2019-02-11T11:46:47.427Z,97455.58
2019-02-11T11:47:55.307Z,97439.86
2019-02-11T11:49:03.414Z,97434.94
2019-02-11T11:50:12.395Z,97447.05
2019-02-11T11:51:20.081Z,97448.45
2019-02-11T11:52:27.942Z,97441.02
2019-02-11T11:53:35.790Z,97449.16
2019-02-11T11:54:45.397Z,97449.20
2019-02-11T11:55:53.210Z,97420.08
2019-02-11T11:57:01.195Z,97454.12
2019-02-11T11:58:09.531Z,97453.86
2019-02-11T11:59:17.353Z,97458.08
2019-02-11T12:00:28.663Z,97459.53
2019-02-11T12:01:36.539Z,97461.55
2019-02-11T12:03:00.538Z,97460.49
2019-02-11T12:03:54.642Z,97473.80
2019-02-11T12:05:02.690Z,97474.88
2019-02-11T12:06:10.686Z,97487.22
2019-02-11T12:07:18.775Z,97485.55
2019-02-11T12:08:26.765Z,97490.09
2019-02-11T12:09:35.571Z,97488.03
2019-02-11T12:10:43.365Z,97503.34
2019-02-11T12:11:51.109Z,97506.19
2019-02-11T12:12:59.270Z,97514.59
2019-02-11T12:14:07.357Z,97508.58
2019-02-11T12:15:19.030Z,97509.90
2019-02-11T12:16:26.713Z,97516.25
2019-02-11T12:17:34.523Z,97516.94
2019-02-11T12:18:42.599Z,97518.38
2019-02-11T12:19:50.250Z,97522.09
2019-02-11T12:20:58.247Z,97521.00
2019-02-11T12:22:06.401Z,97517.53
2019-02-11T12:23:14.411Z,97522.80
2019-02-11T12:24:22.489Z,97523.15
2019-02-11T12:25:30.704Z,97517.80
2019-02-11T12:26:38.733Z,97527.84
2019-02-11T12:27:47.390Z,97531.44
2019-02-11T12:28:55.094Z,97530.70
2019-02-11T12:30:02.879Z,97532.83
2019-02-11T12:31:10.751Z,97533.89
2019-02-11T12:32:18.647Z,97539.98
2019-02-11T12:33:26.231Z,97541.16
2019-02-11T12:34:34.476Z,97546.55
2019-02-11T12:35:42.750Z,97540.30
2019-02-11T12:36:53.285Z,97548.31
2019-02-11T12:38:01.393Z,97548.79
2019-02-11T12:39:09.367Z,97544.72
2019-02-11T12:40:17.213Z,97545.56
2019-02-11T12:41:25.097Z,97554.98
2019-02-11T12:42:33.150Z,97551.16
2019-02-11T12:43:41.055Z,97539.66
2019-02-11T12:44:49.087Z,97546.91
2019-02-11T12:45:57.402Z,97548.47
2019-02-11T12:47:13.913Z,97547.72
2019-02-11T12:48:15.121Z,97564.33
2019-02-11T12:49:23.160Z,97553.17
2019-02-11T12:50:31.246Z,97553.66
2019-02-11T12:51:38.973Z,97562.86
2019-02-11T12:52:47.231Z,97568.00
2019-02-11T12:53:55.245Z,97568.12
2019-02-11T12:55:07.531Z,97562.98
2019-02-11T12:56:12.424Z,97564.05
2019-02-11T12:57:20.439Z,97568.20
2019-02-11T12:58:28.428Z,97567.95
2019-02-11T12:59:36.189Z,97568.44
2019-02-11T13:00:44.524Z,97577.75
2019-02-11T13:01:52.486Z,97581.90
2019-02-11T13:03:00.179Z,97596.31
2019-02-11T13:04:08.202Z,97591.28
2019-02-11T13:05:16.407Z,97591.04
2019-02-11T13:06:24.459Z,97593.20
2019-02-11T13:07:32.214Z,97593.08
2019-02-11T13:08:40.092Z,97598.81
2019-02-11T13:09:48.298Z,97592.80
2019-02-11T13:10:55.919Z,97592.31
2019-02-11T13:12:04.201Z,97594.83
2019-02-11T13:13:11.694Z,97593.28
2019-02-11T13:14:19.435Z,97598.10
2019-02-11T13:15:53.906Z,97588.22
2019-02-11T13:16:37.890Z,97591.22
2019-02-11T13:17:51.846Z,97607.10
2019-02-11T13:18:59.706Z,97606.83
2019-02-11T13:20:12.077Z,97622.12
2019-02-11T13:21:19.952Z,97622.95
2019-02-11T13:22:27.900Z,97629.92